Time;durP1;ratioP1;P1;durP2;ratioP2;P2;SDS_P1;SDS_P2;PMS_P1;PMS_P2;Temp;Humidity;BMP_temperature;BMP_pressure;BME280_temperature;BME280_humidity;BME280_pressure;Samples;Min_cycle;Max_cycle;Signal;HPM_P1;HPM_P2
2022/06/20 00:02:15;;;;;;;10.30;3.35;;;;;;;;;;5015442;28;20022;-70
2022/06/20 00:04:41;;;;;;;9.63;3.15;;;;;;;;;;5014824;28;20048;-70
2022/06/20 00:07:08;;;;;;;9.40;3.37;;;;;;;;;;5015078;28;20018;-70
2022/06/20 00:09:33;;;;;;;12.02;3.13;;;;;;;;;;5014856;28;20263;-70
2022/06/20 00:11:59;;;;;;;11.67;3.13;;;;;;;;;;5014957;28;20086;-69
2022/06/20 00:14:24;;;;;;;7.87;2.97;;;;;;;;;;5013625;28;20295;-70
2022/06/20 00:16:49;;;;;;;10.03;3.33;;;;;;;;;;5014815;28;20271;-70
2022/06/20 00:19:15;;;;;;;9.38;3.50;;;;;;;;;;5014887;28;20072;-71
2022/06/20 00:21:41;;;;;;;7.90;2.83;;;;;;;;;;5015092;28;20104;-70
2022/06/20 00:24:07;;;;;;;6.68;2.80;;;;;;;;;;5015078;28;20029;-70
2022/06/20 00:26:34;;;;;;;10.95;3.10;;;;;;;;;;5015188;28;20033;-70
2022/06/20 00:29:03;;;;;;;10.85;3.22;;;;;;;;;;5014258;28;20083;-70
2022/06/20 00:31:28;;;;;;;9.45;2.97;;;;;;;;;;5013298;28;20022;-71
2022/06/20 00:33:53;;;;;;;10.10;3.03;;;;;;;;;;5014723;28;20080;-70
2022/06/20 00:36:18;;;;;;;12.97;3.73;;;;;;;;;;5014866;28;20087;-71
2022/06/20 00:38:47;;;;;;;10.33;3.10;;;;;;;;;;5014827;28;20295;-71
2022/06/20 00:41:20;;;;;;;8.80;3.33;;;;;;;;;;5016992;28;20361;-75
2022/06/20 00:43:48;;;;;;;7.77;2.83;;;;;;;;;;5017251;28;20022;-73
2022/06/20 00:46:35;;;;;;;9.43;3.20;;;;;;;;;;5017526;28;20022;-73
2022/06/20 00:49:23;;;;;;;11.50;2.90;;;;;;;;;;5017151;28;20037;-73
2022/06/20 00:52:10;;;;;;;8.85;3.10;;;;;;;;;;5017599;28;20022;-73
2022/06/20 00:54:41;;;;;;;9.88;3.10;;;;;;;;;;5017131;28;20036;-74
2022/06/20 00:57:14;;;;;;;8.05;3.53;;;;;;;;;;5016300;28;20026;-74
2022/06/20 00:59:51;;;;;;;8.55;2.97;;;;;;;;;;5015256;28;20022;-74
2022/06/20 01:02:24;;;;;;;8.40;3.13;;;;;;;;;;5015944;28;20491;-75
2022/06/20 01:05:01;;;;;;;;;;;;;;;;;;5015298;28;20034;-74
2022/06/20 01:07:35;;;;;;;8.73;3.00;;;;;;;;;;5016503;28;19968;-73
2022/06/20 01:10:01;;;;;;;5.28;2.70;;;;;;;;;;5016823;28;20030;-74
2022/06/20 01:12:29;;;;;;;10.82;3.00;;;;;;;;;;5016439;28;20036;-74
2022/06/20 01:14:55;;;;;;;7.05;2.85;;;;;;;;;;5014216;28;20030;-74
2022/06/20 01:17:29;;;;;;;11.18;3.15;;;;;;;;;;5015020;28;20029;-74
2022/06/20 01:20:02;;;;;;;6.55;2.67;;;;;;;;;;5015015;28;20025;-72
2022/06/20 01:22:42;;;;;;;6.20;2.83;;;;;;;;;;5014677;28;20083;-73
2022/06/20 01:25:22;;;;;;;9.70;3.20;;;;;;;;;;5015754;28;20029;-73
2022/06/20 01:27:48;;;;;;;7.70;3.10;;;;;;;;;;5015613;28;20095;-74
2022/06/20 01:30:14;;;;;;;6.93;2.78;;;;;;;;;;5017029;28;20398;-74
2022/06/20 01:32:41;;;;;;;8.25;3.20;;;;;;;;;;5016668;28;20519;-74
2022/06/20 01:35:11;;;;;;;10.18;3.38;;;;;;;;;;5016093;28;20022;-74
2022/06/20 01:37:40;;;;;;;8.30;3.15;;;;;;;;;;5015709;28;20471;-74
2022/06/20 01:40:08;;;;;;;11.35;3.30;;;;;;;;;;5016197;28;20057;-74
2022/06/20 01:42:35;;;;;;;9.70;3.50;;;;;;;;;;5015907;28;20030;-74
2022/06/20 01:45:02;;;;;;;8.02;2.97;;;;;;;;;;5015529;28;20444;-73
2022/06/20 01:47:28;;;;;;;11.57;3.50;;;;;;;;;;5015330;28;20029;-73
2022/06/20 01:50:00;;;;;;;6.63;3.10;;;;;;;;;;5015963;28;20026;-73
2022/06/20 01:52:34;;;;;;;9.77;3.13;;;;;;;;;;5014676;28;20052;-74
2022/06/20 01:55:11;;;;;;;7.72;3.08;;;;;;;;;;5015761;28;20026;-74
2022/06/20 01:57:40;;;;;;;8.52;3.40;;;;;;;;;;5015538;28;20079;-73
2022/06/20 02:00:15;;;;;;;7.00;3.15;;;;;;;;;;5015690;28;20018;-73
2022/06/20 02:02:51;;;;;;;9.52;3.20;;;;;;;;;;5015435;28;20116;-73
2022/06/20 02:05:20;;;;;;;9.95;3.25;;;;;;;;;;5015500;28;20036;-74
2022/06/20 02:07:46;;;;;;;7.35;3.28;;;;;;;;;;5015360;28;20084;-73
2022/06/20 02:10:20;;;;;;;8.00;3.30;;;;;;;;;;5017275;28;20060;-73
2022/06/20 02:12:46;;;;;;;;;;;;;;;;;;5018372;28;20515;-74
2022/06/20 02:15:18;;;;;;;8.18;3.35;;;;;;;;;;5019564;28;19913;-73
2022/06/20 02:17:46;;;;;;;8.48;3.20;;;;;;;;;;5019518;28;20438;-74
2022/06/20 02:20:17;;;;;;;9.20;3.20;;;;;;;;;;5019886;28;20114;-74
2022/06/20 02:22:43;;;;;;;8.48;3.25;;;;;;;;;;5018748;28;20475;-74
2022/06/20 02:25:13;;;;;;;6.30;3.08;;;;;;;;;;5018348;28;20026;-73
2022/06/20 02:27:43;;;;;;;10.38;3.10;;;;;;;;;;5020306;28;20093;-74
2022/06/20 02:30:10;;;;;;;7.30;3.17;;;;;;;;;;5019508;28;20025;-73
2022/06/20 02:32:39;;;;;;;9.60;3.40;;;;;;;;;;5019904;28;20487;-73
2022/06/20 02:35:08;;;;;;;9.38;3.53;;;;;;;;;;5019646;28;20038;-74
2022/06/20 02:37:35;;;;;;;7.82;3.35;;;;;;;;;;5019944;28;20413;-74
2022/06/20 02:40:04;;;;;;;10.48;3.20;;;;;;;;;;5019926;28;20614;-75
2022/06/20 02:42:34;;;;;;;9.43;3.58;;;;;;;;;;5019126;28;20029;-73
2022/06/20 02:45:03;;;;;;;6.95;3.30;;;;;;;;;;5018981;28;20479;-73
2022/06/20 02:47:30;;;;;;;10.15;3.28;;;;;;;;;;5018218;28;20064;-72
2022/06/20 02:49:57;;;;;;;9.63;3.63;;;;;;;;;;5017146;28;20029;-73
2022/06/20 02:52:28;;;;;;;9.45;3.55;;;;;;;;;;5017462;28;20053;-73
2022/06/20 02:54:54;;;;;;;7.70;3.55;;;;;;;;;;5018094;28;20051;-73
2022/06/20 02:57:30;;;;;;;12.82;3.40;;;;;;;;;;5018079;28;20527;-73
2022/06/20 02:59:56;;;;;;;10.00;3.28;;;;;;;;;;5018184;28;20028;-73
2022/06/20 03:02:27;;;;;;;6.13;3.20;;;;;;;;;;5018373;28;20428;-73
2022/06/20 03:04:53;;;;;;;6.80;3.38;;;;;;;;;;5016051;28;20048;-73
2022/06/20 03:07:23;;;;;;;10.75;3.60;;;;;;;;;;5017540;28;20053;-73
2022/06/20 03:10:00;;;;;;;10.45;3.30;;;;;;;;;;5016994;28;20029;-73
2022/06/20 03:12:25;;;;;;;7.60;3.08;;;;;;;;;;5017724;28;20511;-73
2022/06/20 03:14:54;;;;;;;8.63;3.60;;;;;;;;;;5017394;28;20033;-74
2022/06/20 03:17:22;;;;;;;9.10;3.40;;;;;;;;;;5016798;28;20505;-73
2022/06/20 03:19:51;;;;;;;13.20;3.53;;;;;;;;;;5016933;28;20081;-73
2022/06/20 03:22:20;;;;;;;7.70;3.13;;;;;;;;;;5016272;28;20032;-73
2022/06/20 03:24:48;;;;;;;7.85;3.25;;;;;;;;;;5016695;28;20030;-72
2022/06/20 03:27:23;;;;;;;10.25;3.42;;;;;;;;;;5016816;28;20356;-72
2022/06/20 03:29:54;;;;;;;9.40;3.60;;;;;;;;;;5016770;28;20490;-73
2022/06/20 03:32:21;;;;;;;9.45;3.47;;;;;;;;;;5016639;28;20100;-73
2022/06/20 03:34:46;;;;;;;9.75;3.70;;;;;;;;;;5016561;28;20030;-73
2022/06/20 03:37:11;;;;;;;8.52;3.70;;;;;;;;;;5016280;28;20025;-73
2022/06/20 03:39:37;;;;;;;7.57;3.47;;;;;;;;;;5016449;28;20037;-72
2022/06/20 03:42:03;;;;;;;10.68;3.97;;;;;;;;;;5016167;28;20255;-73
2022/06/20 03:44:33;;;;;;;9.40;3.65;;;;;;;;;;5016035;28;20029;-74
2022/06/20 03:47:12;;;;;;;8.18;3.72;;;;;;;;;;5015462;28;20146;-73
2022/06/20 03:49:43;;;;;;;8.13;4.07;;;;;;;;;;5016925;28;20029;-73
2022/06/20 03:52:22;;;;;;;9.40;3.53;;;;;;;;;;5017307;28;20061;-72
2022/06/20 03:54:57;;;;;;;9.68;3.45;;;;;;;;;;5017039;28;20041;-73
2022/06/20 03:57:34;;;;;;;10.52;4.10;;;;;;;;;;5016598;28;20080;-74
2022/06/20 04:00:08;;;;;;;9.60;3.72;;;;;;;;;;5015407;28;20030;-74
2022/06/20 04:02:41;;;;;;;10.60;3.72;;;;;;;;;;5016614;28;20022;-73
2022/06/20 04:05:24;;;;;;;9.32;4.00;;;;;;;;;;5016797;28;20410;-73
2022/06/20 04:08:11;;;;;;;8.55;3.67;;;;;;;;;;5016279;28;20034;-73
2022/06/20 04:11:03;;;;;;;10.23;3.80;;;;;;;;;;5016390;28;20024;-73
2022/06/20 04:13:56;;;;;;;9.20;3.90;;;;;;;;;;5016265;28;20029;-73
2022/06/20 04:16:31;;;;;;;8.57;3.60;;;;;;;;;;5016313;28;20025;-73
2022/06/20 04:19:25;;;;;;;8.48;3.78;;;;;;;;;;5015543;28;20032;-73
2022/06/20 04:21:58;;;;;;;9.45;3.50;;;;;;;;;;5015631;28;20026;-74
2022/06/20 04:24:56;;;;;;;12.43;3.78;;;;;;;;;;5015278;28;20036;-74
2022/06/20 04:27:31;;;;;;;11.30;3.65;;;;;;;;;;5014943;28;20092;-73
2022/06/20 04:30:08;;;;;;;7.55;3.58;;;;;;;;;;5015406;28;20025;-73
2022/06/20 04:32:38;;;;;;;12.88;3.55;;;;;;;;;;5014713;28;20075;-71
2022/06/20 04:35:18;;;;;;;10.68;3.50;;;;;;;;;;5015191;28;20105;-73
2022/06/20 04:37:53;;;;;;;10.77;3.50;;;;;;;;;;5015539;28;20052;-71
2022/06/20 04:40:35;;;;;;;7.07;3.10;;;;;;;;;;5013926;28;20030;-73
2022/06/20 04:43:33;;;;;;;10.15;4.40;;;;;;;;;;5015529;28;20108;-74
2022/06/20 04:46:05;;;;;;;10.52;3.58;;;;;;;;;;5015548;28;20029;-74
2022/06/20 04:48:31;;;;;;;7.13;3.50;;;;;;;;;;5013750;28;20033;-73
2022/06/20 04:51:05;;;;;;;10.45;3.90;;;;;;;;;;5015385;28;20022;-73
2022/06/20 04:53:34;;;;;;;12.18;4.00;;;;;;;;;;5014858;28;20030;-74
2022/06/20 04:56:05;;;;;;;8.43;3.78;;;;;;;;;;5014947;28;20022;-74
2022/06/20 04:58:35;;;;;;;9.95;4.03;;;;;;;;;;5013949;28;20428;-73
2022/06/20 05:01:02;;;;;;;10.35;3.40;;;;;;;;;;5015817;28;20032;-74
2022/06/20 05:03:32;;;;;;;10.23;3.85;;;;;;;;;;5015052;28;20439;-72
2022/06/20 05:05:59;;;;;;;10.13;3.92;;;;;;;;;;5015937;28;20053;-73
2022/06/20 05:08:31;;;;;;;7.68;3.80;;;;;;;;;;5016010;28;20022;-73
2022/06/20 05:11:04;;;;;;;10.05;3.80;;;;;;;;;;5015684;28;20037;-73
2022/06/20 05:13:45;;;;;;;8.18;3.80;;;;;;;;;;5015688;28;20100;-73
2022/06/20 05:16:23;;;;;;;6.72;3.50;;;;;;;;;;5015544;28;20117;-74
2022/06/20 05:18:53;;;;;;;10.13;3.58;;;;;;;;;;5015715;28;20021;-74
2022/06/20 05:21:27;;;;;;;6.85;3.33;;;;;;;;;;5016122;28;20030;-73
2022/06/20 05:23:56;;;;;;;12.23;4.20;;;;;;;;;;5016530;28;20041;-74
2022/06/20 05:26:25;;;;;;;8.65;3.65;;;;;;;;;;5014901;28;20419;-73
2022/06/20 05:28:53;;;;;;;9.35;3.92;;;;;;;;;;5016170;28;20030;-73
2022/06/20 05:31:42;;;;;;;9.73;3.70;;;;;;;;;;5016148;28;20458;-74
2022/06/20 05:34:33;;;;;;;8.77;3.50;;;;;;;;;;5016180;28;20033;-73
2022/06/20 05:37:10;;;;;;;9.40;3.85;;;;;;;;;;5015481;28;20026;-73
2022/06/20 05:39:47;;;;;;;12.93;4.50;;;;;;;;;;5015629;28;20030;-73
2022/06/20 05:42:15;;;;;;;10.38;3.72;;;;;;;;;;5015772;28;20036;-73
2022/06/20 05:44:40;;;;;;;11.95;4.10;;;;;;;;;;5015856;28;20029;-73
2022/06/20 05:47:15;;;;;;;11.63;3.70;;;;;;;;;;5017348;28;20398;-75
2022/06/20 05:50:05;;;;;;;8.93;3.55;;;;;;;;;;5018471;28;20040;-74
2022/06/20 05:52:32;;;;;;;8.15;3.67;;;;;;;;;;5018735;28;20023;-73
2022/06/20 05:55:15;;;;;;;8.32;3.55;;;;;;;;;;5018288;28;20399;-72
2022/06/20 05:57:43;;;;;;;11.07;4.15;;;;;;;;;;5017038;28;20368;-72
2022/06/20 06:00:12;;;;;;;11.52;4.13;;;;;;;;;;5019246;28;20079;-73
2022/06/20 06:02:45;;;;;;;9.52;3.78;;;;;;;;;;5018961;28;20491;-74
2022/06/20 06:05:18;;;;;;;12.10;4.38;;;;;;;;;;5017529;28;20033;-73
2022/06/20 06:08:01;;;;;;;10.23;4.17;;;;;;;;;;5018534;28;20049;-73
2022/06/20 06:10:46;;;;;;;11.45;3.78;;;;;;;;;;5017960;28;20129;-73
2022/06/20 06:13:18;;;;;;;7.88;3.80;;;;;;;;;;5017670;28;20030;-73
2022/06/20 06:18:57;;;;;;;11.32;4.38;;;;;;;;;;5019946;28;20092;-73
2022/06/20 06:21:23;;;;;;;14.40;3.90;;;;;;;;;;5018142;28;20108;-73
2022/06/20 06:23:48;;;;;;;10.68;3.85;;;;;;;;;;5018907;28;20029;-74
2022/06/20 06:26:16;;;;;;;7.80;3.97;;;;;;;;;;5019845;28;20030;-73
2022/06/20 06:28:42;;;;;;;9.40;3.83;;;;;;;;;;5019844;28;20041;-73
2022/06/20 06:31:17;;;;;;;5.18;3.38;;;;;;;;;;5019450;28;20072;-74
2022/06/20 06:33:52;;;;;;;11.55;3.63;;;;;;;;;;5016099;28;20072;-73
2022/06/20 06:36:40;;;;;;;8.40;3.22;;;;;;;;;;5018078;28;20026;-73
2022/06/20 06:39:28;;;;;;;10.80;3.13;;;;;;;;;;5017594;28;20014;-73
2022/06/20 06:41:56;;;;;;;10.85;3.30;;;;;;;;;;5017596;28;20026;-74
2022/06/20 06:44:34;;;;;;;8.93;3.08;;;;;;;;;;5018615;28;20057;-74
2022/06/20 06:47:00;;;;;;;12.95;3.15;;;;;;;;;;5019875;28;20026;-74
2022/06/20 06:49:36;;;;;;;12.50;2.97;;;;;;;;;;5019656;28;20472;-74
2022/06/20 06:52:08;;;;;;;10.95;3.65;;;;;;;;;;5017981;28;20036;-74
2022/06/20 06:54:53;;;;;;;11.43;3.58;;;;;;;;;;5016400;28;20073;-73
2022/06/20 06:57:31;;;;;;;9.52;3.17;;;;;;;;;;5021914;28;20084;-73
2022/06/20 07:00:21;;;;;;;7.82;3.50;;;;;;;;;;5020142;28;20048;-74
2022/06/20 07:02:58;;;;;;;11.73;3.90;;;;;;;;;;5019676;28;20029;-73
2022/06/20 07:05:55;;;;;;;7.93;3.70;;;;;;;;;;5020651;28;20064;-73
2022/06/20 07:08:28;;;;;;;11.40;4.13;;;;;;;;;;5018942;28;20402;-73
2022/06/20 07:11:12;;;;;;;9.45;3.60;;;;;;;;;;5019610;28;20018;-73
2022/06/20 07:13:54;;;;;;;8.20;3.58;;;;;;;;;;5020674;28;20049;-72
2022/06/20 07:16:39;;;;;;;12.40;3.80;;;;;;;;;;5022415;28;20021;-73
2022/06/20 07:19:08;;;;;;;10.10;4.65;;;;;;;;;;5019894;28;20025;-73
2022/06/20 07:21:33;;;;;;;8.45;3.80;;;;;;;;;;5019130;28;20033;-73
2022/06/20 07:24:02;;;;;;;9.57;4.03;;;;;;;;;;5019423;28;20021;-73
2022/06/20 07:26:50;;;;;;;11.00;4.65;;;;;;;;;;5019823;28;20048;-73
2022/06/20 07:29:23;;;;;;;9.90;4.47;;;;;;;;;;5019249;28;20026;-74
2022/06/20 07:32:07;;;;;;;9.07;4.90;;;;;;;;;;5019568;28;20119;-73
2022/06/20 07:34:47;;;;;;;9.43;4.57;;;;;;;;;;5018761;28;20049;-73
2022/06/20 07:37:21;;;;;;;7.80;4.18;;;;;;;;;;5019489;28;20028;-73
2022/06/20 07:40:04;;;;;;;8.10;4.18;;;;;;;;;;5020451;28;20117;-72
2022/06/20 07:42:40;;;;;;;9.97;4.57;;;;;;;;;;5018848;28;20032;-71
2022/06/20 07:45:18;;;;;;;7.95;4.57;;;;;;;;;;5018241;28;20491;-72
2022/06/20 07:47:50;;;;;;;9.00;4.43;;;;;;;;;;5019372;28;20030;-73
2022/06/20 07:50:21;;;;;;;8.85;3.90;;;;;;;;;;5018977;28;20104;-74
2022/06/20 07:52:59;;;;;;;7.70;3.88;;;;;;;;;;5019520;28;20024;-71
2022/06/20 07:55:30;;;;;;;7.70;4.18;;;;;;;;;;5018218;28;20028;-73
2022/06/20 07:58:05;;;;;;;9.35;3.92;;;;;;;;;;5019487;28;20025;-73
2022/06/20 08:00:37;;;;;;;10.65;4.25;;;;;;;;;;5018790;28;20044;-74
2022/06/20 08:03:11;;;;;;;8.52;4.22;;;;;;;;;;5018246;28;20040;-74
2022/06/20 08:05:46;;;;;;;13.38;4.30;;;;;;;;;;5016750;28;20029;-73
2022/06/20 08:08:22;;;;;;;7.80;4.20;;;;;;;;;;5014443;28;20037;-73
2022/06/20 08:10:54;;;;;;;9.48;3.97;;;;;;;;;;5016712;28;20025;-73
2022/06/20 08:13:38;;;;;;;8.23;3.83;;;;;;;;;;5014650;28;20026;-73
2022/06/20 08:16:15;;;;;;;;;;;;;;;;;;5016732;28;20491;-73
2022/06/20 08:18:41;;;;;;;9.77;4.40;;;;;;;;;;5016205;28;19916;-72
2022/06/20 08:21:33;;;;;;;8.65;4.30;;;;;;;;;;5016508;28;20029;-71
2022/06/20 08:24:04;;;;;;;9.70;4.60;;;;;;;;;;5028767;28;20030;-73
2022/06/20 08:26:34;;;;;;;10.60;4.15;;;;;;;;;;5014617;28;20429;-73
2022/06/20 08:29:06;;;;;;;8.10;4.45;;;;;;;;;;5015780;28;20391;-73
2022/06/20 08:31:35;;;;;;;11.70;4.20;;;;;;;;;;5015335;28;20033;-73
2022/06/20 08:34:00;;;;;;;6.65;4.13;;;;;;;;;;5015211;28;20262;-74
2022/06/20 08:36:37;;;;;;;10.27;4.43;;;;;;;;;;5015979;28;20188;-74
2022/06/20 08:39:16;;;;;;;8.10;4.00;;;;;;;;;;5015674;28;20025;-73
2022/06/20 08:42:19;;;;;;;10.15;3.95;;;;;;;;;;5016070;28;20442;-73
2022/06/20 08:45:02;;;;;;;10.02;4.00;;;;;;;;;;5015535;28;20107;-73
2022/06/20 08:47:41;;;;;;;;;;;;;;;;;;5016126;28;20152;-73
2022/06/20 08:50:43;;;;;;;6.70;4.03;;;;;;;;;;5016027;28;19910;-74
2022/06/20 08:53:31;;;;;;;10.63;4.38;;;;;;;;;;5016322;28;20022;-74
2022/06/20 08:56:15;;;;;;;10.75;4.70;;;;;;;;;;5015912;28;20072;-73
2022/06/20 08:59:06;;;;;;;8.63;4.70;;;;;;;;;;5015366;28;20022;-74
2022/06/20 09:02:04;;;;;;;9.32;4.25;;;;;;;;;;5015882;28;20029;-74
2022/06/20 09:04:48;;;;;;;8.85;4.78;;;;;;;;;;5015969;28;20030;-74
2022/06/20 09:07:53;;;;;;;12.73;4.63;;;;;;;;;;5015619;28;20026;-74
2022/06/20 09:11:00;;;;;;;7.53;4.30;;;;;;;;;;5015686;28;20120;-74
2022/06/20 09:13:46;;;;;;;10.65;4.25;;;;;;;;;;4982967;28;20200;-73
2022/06/20 09:16:22;;;;;;;11.35;4.97;;;;;;;;;;5015813;28;20029;-74
2022/06/20 09:18:56;;;;;;;13.45;5.57;;;;;;;;;;5015158;28;20037;-74
2022/06/20 09:21:35;;;;;;;8.48;4.82;;;;;;;;;;5015605;28;20128;-72
2022/06/20 09:24:28;;;;;;;10.10;4.30;;;;;;;;;;5015426;28;20033;-72
2022/06/20 09:27:04;;;;;;;9.27;4.57;;;;;;;;;;5014949;28;20030;-73
2022/06/20 09:29:51;;;;;;;10.38;4.63;;;;;;;;;;5016175;28;20290;-73
2022/06/20 09:32:44;;;;;;;12.70;4.90;;;;;;;;;;5014399;28;20037;-72
2022/06/20 09:35:22;;;;;;;12.57;4.95;;;;;;;;;;5015869;28;20041;-73
2022/06/20 09:38:18;;;;;;;10.25;4.72;;;;;;;;;;5015221;28;20447;-72
2022/06/20 09:40:59;;;;;;;8.65;5.15;;;;;;;;;;5015472;28;20033;-73
2022/06/20 09:43:57;;;;;;;15.68;5.18;;;;;;;;;;5015172;28;20026;-73
2022/06/20 09:46:57;;;;;;;9.45;4.60;;;;;;;;;;5016253;28;20101;-73
2022/06/20 09:49:50;;;;;;;7.90;4.85;;;;;;;;;;5014859;28;20463;-74
2022/06/20 09:52:34;;;;;;;10.70;5.00;;;;;;;;;;5014109;28;20026;-74
2022/06/20 09:55:25;;;;;;;11.63;4.72;;;;;;;;;;5015102;28;20120;-74
2022/06/20 09:58:12;;;;;;;8.02;4.55;;;;;;;;;;5013888;28;20113;-73
2022/06/20 10:00:55;;;;;;;9.73;4.78;;;;;;;;;;5015363;28;20065;-74
2022/06/20 10:03:38;;;;;;;11.70;4.68;;;;;;;;;;5013240;28;20112;-72
2022/06/20 10:06:11;;;;;;;12.32;5.07;;;;;;;;;;5014804;28;20026;-73
2022/06/20 10:09:00;;;;;;;12.63;5.35;;;;;;;;;;5014632;28;20125;-73
2022/06/20 10:11:34;;;;;;;7.30;4.60;;;;;;;;;;5013974;28;20033;-73
2022/06/20 10:14:27;;;;;;;10.52;5.10;;;;;;;;;;5014618;28;20022;-72
2022/06/20 10:17:03;;;;;;;12.88;5.35;;;;;;;;;;5014416;28;20065;-73
2022/06/20 10:19:48;;;;;;;13.38;4.82;;;;;;;;;;5013240;28;20021;-74
2022/06/20 10:22:29;;;;;;;9.73;4.32;;;;;;;;;;4973694;28;20136;-74
2022/06/20 10:25:24;;;;;;;13.23;4.03;;;;;;;;;;5014756;28;20026;-73
2022/06/20 10:28:17;;;;;;;8.05;4.30;;;;;;;;;;5015546;28;20061;-72
2022/06/20 10:30:58;;;;;;;7.20;4.05;;;;;;;;;;5014197;28;20026;-73
2022/06/20 10:33:39;;;;;;;7.60;3.90;;;;;;;;;;5016464;28;20040;-73
2022/06/20 10:36:16;;;;;;;12.40;4.93;;;;;;;;;;5017618;28;20025;-72
2022/06/20 10:38:51;;;;;;;8.38;4.63;;;;;;;;;;5018101;28;20472;-72
2022/06/20 10:41:29;;;;;;;20.77;5.82;;;;;;;;;;5018101;28;20037;-73
2022/06/20 10:44:22;;;;;;;10.30;5.25;;;;;;;;;;5016550;28;20022;-73
2022/06/20 10:46:55;;;;;;;9.65;5.65;;;;;;;;;;5017482;28;20053;-73
2022/06/20 10:49:42;;;;;;;;;;;;;;;;;;5017640;28;20030;-72
2022/06/20 10:52:17;;;;;;;9.77;4.95;;;;;;;;;;5017460;28;20024;-72
2022/06/20 10:55:01;;;;;;;13.45;6.18;;;;;;;;;;5015969;28;20403;-73
2022/06/20 10:57:48;;;;;;;9.55;5.40;;;;;;;;;;5017058;28;20028;-72
2022/06/20 11:00:17;;;;;;;9.95;5.50;;;;;;;;;;5017999;28;20414;-73
2022/06/20 11:03:17;;;;;;;13.93;5.05;;;;;;;;;;5018799;28;20105;-74
2022/06/20 11:06:02;;;;;;;6.30;4.85;;;;;;;;;;5018045;28;20030;-73
2022/06/20 11:08:59;;;;;;;14.35;4.80;;;;;;;;;;5018889;28;20030;-73
2022/06/20 11:11:44;;;;;;;7.55;4.57;;;;;;;;;;5018604;28;20034;-74
2022/06/20 11:14:22;;;;;;;8.07;4.13;;;;;;;;;;5018971;28;20028;-74
2022/06/20 11:17:25;;;;;;;7.82;4.10;;;;;;;;;;5019213;28;20568;-75
2022/06/20 11:20:01;;;;;;;7.00;4.68;;;;;;;;;;5017501;28;20022;-73
2022/06/20 11:22:35;;;;;;;7.10;4.18;;;;;;;;;;5018643;28;20049;-73
2022/06/20 11:25:07;;;;;;;9.20;4.60;;;;;;;;;;5019516;28;20153;-74
2022/06/20 11:27:42;;;;;;;7.30;4.22;;;;;;;;;;5017772;28;20025;-73
2022/06/20 11:30:18;;;;;;;6.95;5.18;;;;;;;;;;5019145;28;20029;-74
2022/06/20 11:34:00;;;;;;;8.80;5.13;;;;;;;;;;5017463;28;20053;-74
2022/06/20 11:36:14;;;;;;;11.77;4.95;;;;;;;;;;4998967;28;20046;-72
2022/06/20 11:39:37;;;;;;;8.80;4.55;;;;;;;;;;5018941;28;20026;-73
2022/06/20 11:42:27;;;;;;;8.20;4.65;;;;;;;;;;4974681;28;20035;-73
2022/06/20 11:45:26;;;;;;;7.55;4.55;;;;;;;;;;4958212;28;20066;-74
2022/06/20 11:47:54;;;;;;;8.65;4.25;;;;;;;;;;5017206;28;20049;-73
2022/06/20 11:50:23;;;;;;;4.70;3.65;;;;;;;;;;5017880;28;20471;-74
2022/06/20 11:52:57;;;;;;;9.35;3.50;;;;;;;;;;5017527;28;20038;-73
2022/06/20 11:55:46;;;;;;;9.98;3.35;;;;;;;;;;5016268;28;20032;-73
2022/06/20 11:58:20;;;;;;;6.68;3.45;;;;;;;;;;5016457;28;20152;-73
2022/06/20 12:00:51;;;;;;;5.50;2.95;;;;;;;;;;5017570;28;20033;-77
2022/06/20 12:03:30;;;;;;;10.60;3.58;;;;;;;;;;5017767;28;20092;-73
2022/06/20 12:06:08;;;;;;;8.45;3.22;;;;;;;;;;5016210;28;20022;-72
2022/06/20 12:08:54;;;;;;;7.13;4.07;;;;;;;;;;5017557;28;20025;-74
2022/06/20 12:11:55;;;;;;;7.55;3.67;;;;;;;;;;5017505;28;20510;-73
2022/06/20 12:14:30;;;;;;;5.95;4.07;;;;;;;;;;5015937;28;20064;-74
2022/06/20 12:17:14;;;;;;;8.07;4.35;;;;;;;;;;5016188;28;20021;-74
2022/06/20 12:25:47;;;;;;;6.25;3.47;;;;;;;;;;5017689;28;20072;-74
2022/06/20 12:28:32;;;;;;;3.53;2.70;;;;;;;;;;5017715;28;20499;-74
2022/06/20 12:31:10;;;;;;;2.80;2.47;;;;;;;;;;5017064;28;20446;-74
2022/06/20 12:33:39;;;;;;;2.90;2.60;;;;;;;;;;5017454;28;20049;-74
2022/06/20 12:36:36;;;;;;;3.78;2.50;;;;;;;;;;5018083;28;20068;-72
2022/06/20 12:39:13;;;;;;;3.17;2.10;;;;;;;;;;5011917;28;20065;-73
2022/06/20 12:41:43;;;;;;;3.20;2.42;;;;;;;;;;5016854;28;20032;-73
2022/06/20 12:44:15;;;;;;;3.78;2.40;;;;;;;;;;5016591;28;20104;-73
2022/06/20 12:47:26;;;;;;;3.50;2.33;;;;;;;;;;5016044;28;20514;-74
2022/06/20 12:50:03;;;;;;;3.78;2.30;;;;;;;;;;5017037;28;20108;-74
2022/06/20 12:53:02;;;;;;;3.63;2.15;;;;;;;;;;5015289;28;20040;-74
2022/06/20 12:55:57;;;;;;;5.20;2.20;;;;;;;;;;5015229;28;20022;-74
2022/06/20 12:58:50;;;;;;;4.32;2.30;;;;;;;;;;5015947;28;20105;-72
2022/06/20 13:01:37;;;;;;;3.38;2.17;;;;;;;;;;5014390;28;20541;-73
2022/06/20 13:04:24;;;;;;;4.00;2.55;;;;;;;;;;5015387;28;20509;-73
2022/06/20 13:07:04;;;;;;;3.47;2.15;;;;;;;;;;5014665;28;20037;-73
2022/06/20 13:09:46;;;;;;;2.75;2.30;;;;;;;;;;5014259;28;20096;-73
2022/06/20 13:12:22;;;;;;;4.75;2.60;;;;;;;;;;5013095;28;20084;-74
2022/06/20 13:15:31;;;;;;;5.20;2.42;;;;;;;;;;5014645;28;20029;-72
2022/06/20 13:18:30;;;;;;;3.58;2.28;;;;;;;;;;5014699;28;20107;-73
2022/06/20 13:21:06;;;;;;;4.43;2.53;;;;;;;;;;5014446;28;20022;-74
2022/06/20 13:24:01;;;;;;;4.20;2.47;;;;;;;;;;5014682;28;20030;-74
2022/06/20 13:26:35;;;;;;;2.97;2.45;;;;;;;;;;5015253;28;20165;-74
2022/06/20 13:29:29;;;;;;;3.08;2.20;;;;;;;;;;5013213;28;20079;-74
2022/06/20 13:32:01;;;;;;;2.63;2.33;;;;;;;;;;5015938;28;20041;-74
2022/06/20 13:34:43;;;;;;;2.05;1.85;;;;;;;;;;5014920;28;20036;-73
2022/06/20 13:37:31;;;;;;;2.42;1.83;;;;;;;;;;5013794;28;20079;-73
2022/06/20 13:40:16;;;;;;;3.60;2.17;;;;;;;;;;5014308;28;20076;-73
2022/06/20 13:42:58;;;;;;;3.08;2.30;;;;;;;;;;5013453;28;20057;-73
2022/06/20 13:45:27;;;;;;;2.72;2.33;;;;;;;;;;5012961;28;20026;-73
2022/06/20 13:48:14;;;;;;;2.85;2.50;;;;;;;;;;5014157;28;20469;-73
2022/06/20 13:50:51;;;;;;;2.20;2.00;;;;;;;;;;5014835;28;20165;-74
2022/06/20 13:53:33;;;;;;;3.92;2.10;;;;;;;;;;5014743;28;20068;-73
2022/06/20 13:56:01;;;;;;;5.38;2.22;;;;;;;;;;5014316;28;20037;-73
2022/06/20 13:59:04;;;;;;;5.72;2.20;;;;;;;;;;5013983;28;20021;-73
2022/06/20 14:01:36;;;;;;;2.60;1.88;;;;;;;;;;5013594;28;20546;-73
2022/06/20 14:04:06;;;;;;;2.60;1.85;;;;;;;;;;5014196;28;20084;-73
2022/06/20 14:06:50;;;;;;;3.50;2.67;;;;;;;;;;5016710;28;20025;-75
2022/06/20 14:09:23;;;;;;;4.07;2.63;;;;;;;;;;5018189;28;20113;-74
2022/06/20 14:11:56;;;;;;;3.53;2.50;;;;;;;;;;5017818;28;20026;-72
2022/06/20 14:14:32;;;;;;;2.92;2.53;;;;;;;;;;5018252;28;20105;-72
2022/06/20 14:17:15;;;;;;;5.40;2.78;;;;;;;;;;5018676;28;20030;-73
2022/06/20 14:19:47;;;;;;;2.92;2.20;;;;;;;;;;5018962;28;20021;-73
2022/06/20 14:22:27;;;;;;;3.72;2.63;;;;;;;;;;5018901;28;20026;-72
2022/06/20 14:24:53;;;;;;;4.40;2.05;;;;;;;;;;5017960;28;20033;-74
2022/06/20 14:27:25;;;;;;;3.00;2.20;;;;;;;;;;5017445;28;20021;-73
2022/06/20 14:30:02;;;;;;;2.63;1.92;;;;;;;;;;5016374;28;20491;-73
2022/06/20 14:32:35;;;;;;;2.67;2.08;;;;;;;;;;5016455;28;20069;-74
2022/06/20 14:35:21;;;;;;;3.90;2.35;;;;;;;;;;5017559;28;20030;-72
2022/06/20 14:38:12;;;;;;;3.67;2.40;;;;;;;;;;5016342;28;20116;-73
2022/06/20 14:40:43;;;;;;;3.03;2.00;;;;;;;;;;5016753;28;20029;-73
2022/06/20 14:43:29;;;;;;;3.90;2.50;;;;;;;;;;5018162;28;20097;-73
2022/06/20 14:46:11;;;;;;;3.80;2.40;;;;;;;;;;5017542;28;20038;-74
2022/06/20 14:48:46;;;;;;;3.67;2.63;;;;;;;;;;5017983;28;20040;-74
2022/06/20 14:51:30;;;;;;;4.78;2.40;;;;;;;;;;5016115;28;20030;-73
2022/06/20 14:54:02;;;;;;;4.45;2.28;;;;;;;;;;5017526;28;20022;-74
2022/06/20 14:56:32;;;;;;;3.35;2.40;;;;;;;;;;5019497;28;20029;-73
2022/06/20 14:59:27;;;;;;;2.53;1.55;;;;;;;;;;5016953;28;20049;-74
2022/06/20 15:02:03;;;;;;;1.85;1.60;;;;;;;;;;5010800;28;20041;-73
2022/06/20 15:04:35;;;;;;;2.33;1.25;;;;;;;;;;5018590;28;20025;-73
2022/06/20 15:07:26;;;;;;;2.67;0.90;;;;;;;;;;5017744;28;20407;-73
2022/06/20 15:09:58;;;;;;;1.45;0.70;;;;;;;;;;5016631;28;20033;-73
2022/06/20 15:12:43;;;;;;;1.60;0.63;;;;;;;;;;5016817;28;20116;-73
2022/06/20 15:15:19;;;;;;;2.30;0.52;;;;;;;;;;5017459;28;20175;-73
2022/06/20 15:18:09;;;;;;;1.00;0.40;;;;;;;;;;5015764;28;20022;-74
2022/06/20 15:20:55;;;;;;;3.22;0.60;;;;;;;;;;5015688;28;20032;-73
2022/06/20 15:23:35;;;;;;;1.15;0.60;;;;;;;;;;5017441;28;20096;-73
2022/06/20 15:26:25;;;;;;;0.43;0.40;;;;;;;;;;5016036;28;20033;-74
2022/06/20 15:29:04;;;;;;;0.40;0.28;;;;;;;;;;5017965;28;20030;-74
2022/06/20 15:31:32;;;;;;;0.30;0.30;;;;;;;;;;5019093;28;20042;-74
2022/06/20 15:34:19;;;;;;;0.63;0.50;;;;;;;;;;5018627;28;20029;-73
2022/06/20 15:36:47;;;;;;;0.40;0.40;;;;;;;;;;5019033;28;20026;-75
2022/06/20 15:39:29;;;;;;;0.60;0.60;;;;;;;;;;5018840;28;20045;-74
2022/06/20 15:42:06;;;;;;;0.80;0.50;;;;;;;;;;5018702;28;20072;-72
2022/06/20 15:44:47;;;;;;;0.98;0.77;;;;;;;;;;5017860;28;20029;-73
2022/06/20 15:47:14;;;;;;;0.60;0.52;;;;;;;;;;5016655;28;20029;-73
2022/06/20 15:50:03;;;;;;;2.20;0.40;;;;;;;;;;5017933;28;20084;-74
2022/06/20 15:52:51;;;;;;;0.52;0.40;;;;;;;;;;5017860;28;20033;-73